Time;durP1;ratioP1;P1;durP2;ratioP2;P2;SDS_P1;SDS_P2;PMS_P1;PMS_P2;Temp;Humidity;BMP_temperature;BMP_pressure;BME280_temperature;BME280_humidity;BME280_pressure;Samples;Min_cycle;Max_cycle;Signal;HPM_P1;HPM_P2
2022/06/14 00:01:22;;;;;;;3.30;2.27;;;22.30;45.00;23.40;101563.00;;;;5069559;28;20256;-43
2022/06/14 00:03:48;;;;;;;4.10;2.27;;;22.30;45.00;23.40;101563.00;;;;5073094;28;20186;-41
2022/06/14 00:06:19;;;;;;;3.27;2.20;;;22.30;45.20;23.40;101571.00;;;;5075040;28;20247;-42
2022/06/14 00:08:45;;;;;;;3.47;2.13;;;22.30;45.10;23.40;101565.00;;;;5068202;28;20165;-42
2022/06/14 00:11:18;;;;;;;4.23;2.00;;;22.20;45.00;23.30;101560.00;;;;5069195;28;20640;-43
2022/06/14 00:13:44;;;;;;;4.33;2.20;;;22.30;45.10;23.30;101561.00;;;;5069186;28;20204;-42
2022/06/14 00:16:10;;;;;;;3.13;2.20;;;22.20;45.00;23.30;101576.00;;;;5068973;28;20170;-44
2022/06/14 00:18:35;;;;;;;3.67;2.30;;;22.20;45.00;23.30;101572.00;;;;5069125;28;20169;-43
2022/06/14 00:21:01;;;;;;;4.87;2.17;;;22.20;45.20;23.30;101562.00;;;;5068745;28;20170;-42
2022/06/14 00:23:27;;;;;;;3.30;2.17;;;22.10;45.30;23.20;101567.00;;;;5067688;28;20209;-43
2022/06/14 00:25:55;;;;;;;3.63;2.23;;;22.20;45.30;23.20;101566.00;;;;5068805;28;20200;-43
2022/06/14 00:28:22;;;;;;;3.40;2.00;;;22.10;45.30;23.20;101564.00;;;;5068822;28;20184;-42
2022/06/14 00:30:51;;;;;;;2.40;1.90;;;22.10;45.30;23.00;101570.00;;;;5068750;28;20204;-44
2022/06/14 00:33:17;;;;;;;2.47;2.00;;;22.10;45.30;23.20;101561.00;;;;5068759;28;20185;-42
2022/06/14 00:35:43;;;;;;;3.00;2.13;;;22.10;45.80;23.10;101555.00;;;;5068749;28;20802;-42
2022/06/14 00:38:12;;;;;;;3.23;2.20;;;22.10;45.40;23.10;101566.00;;;;5068885;28;20177;-42
2022/06/14 00:40:39;;;;;;;3.30;2.10;;;22.00;45.40;23.10;101560.00;;;;5068795;28;20169;-41
2022/06/14 00:43:16;;;;;;;3.50;2.20;;;22.00;45.50;23.10;101558.00;;;;5069336;28;20669;-43
2022/06/14 00:45:42;;;;;;;3.50;2.17;;;22.00;45.50;23.00;101550.00;;;;5068770;28;20192;-42
2022/06/14 00:48:12;;;;;;;4.17;2.00;;;21.90;45.50;23.00;101558.00;;;;5068790;28;20166;-47
2022/06/14 00:51:18;;;;;;;4.03;2.10;;;21.90;45.60;23.00;101550.00;;;;5067556;28;20215;-48
2022/06/14 00:53:52;;;;;;;2.63;2.10;;;21.90;45.70;23.00;101558.00;;;;5083457;28;20286;-43
2022/06/14 00:56:48;;;;;;;2.30;2.10;;;21.90;45.70;23.00;101560.00;;;;5088346;28;20169;-43
2022/06/14 00:59:34;;;;;;;2.50;2.00;;;21.90;45.60;22.90;101567.00;;;;5071385;28;20181;-43
2022/06/14 01:02:14;;;;;;;3.43;2.13;;;21.80;45.50;22.90;101564.00;;;;5072758;28;20173;-43
2022/06/14 01:04:40;;;;;;;3.43;2.00;;;21.80;45.60;22.90;101565.00;;;;5071606;28;20272;-43
2022/06/14 01:07:28;;;;;;;2.70;2.00;;;21.80;45.70;22.90;101552.00;;;;5054397;28;20222;-43
2022/06/14 01:10:07;;;;;;;3.90;2.20;;;21.80;45.60;22.80;101556.00;;;;5057742;28;20215;-43
2022/06/14 01:12:39;;;;;;;4.97;2.17;;;21.80;45.70;22.80;101541.00;;;;5070987;28;20204;-43
2022/06/14 01:15:09;;;;;;;2.80;2.00;;;21.80;45.80;22.80;101544.00;;;;5071108;28;20517;-43
2022/06/14 01:17:41;;;;;;;2.80;2.10;;;21.80;45.80;22.70;101546.00;;;;5070992;28;20282;-44
2022/06/14 01:20:08;;;;;;;2.47;2.03;;;21.80;45.90;22.70;101534.00;;;;5077647;28;20181;-43
2022/06/14 01:22:34;;;;;;;2.50;2.00;;;21.80;45.90;22.70;101542.00;;;;5072323;28;20291;-42
2022/06/14 01:25:02;;;;;;;5.27;2.00;;;21.80;46.00;22.70;101511.00;;;;5072624;28;20181;-43
2022/06/14 01:27:29;;;;;;;2.60;2.00;;;21.80;46.00;22.70;101466.00;;;;5054669;28;20170;-43
2022/06/14 01:30:06;;;;;;;2.67;2.10;;;21.70;46.00;22.70;101533.00;;;;5071409;28;20530;-43
2022/06/14 01:32:35;;;;;;;2.60;1.90;;;21.70;46.00;22.70;101522.00;;;;5055980;28;20235;-44
2022/06/14 01:35:04;;;;;;;3.90;2.10;;;21.70;46.00;22.60;101539.00;;;;5054897;28;20177;-43
2022/06/14 01:37:30;;;;;;;3.23;2.10;;;21.70;46.00;22.60;101542.00;;;;5071477;28;20761;-43
2022/06/14 01:39:56;;;;;;;2.40;2.00;;;21.70;46.10;22.60;101544.00;;;;5072286;28;20177;-43
2022/06/14 01:42:46;;;;;;;2.50;2.00;;;21.70;46.10;22.60;101537.00;;;;5054037;28;20277;-43
2022/06/14 01:45:32;;;;;;;3.10;2.20;;;21.60;46.00;22.60;101541.00;;;;5070835;28;20204;-43
2022/06/14 01:48:30;;;;;;;3.40;2.40;;;21.60;46.00;22.50;101535.00;;;;5070669;28;20150;-42
2022/06/14 01:54:35;;;;;;;3.70;2.50;;;21.60;45.90;22.50;101535.00;;;;5065129;28;20285;-43
2022/06/14 01:57:18;;;;;;;4.13;2.57;;;21.50;45.90;22.50;101527.00;;;;5057154;28;20162;-43
2022/06/14 02:00:06;;;;;;;3.47;2.40;;;21.50;46.00;22.40;101508.00;;;;5070527;28;20165;-43
2022/06/14 02:02:51;;;;;;;3.87;2.60;;;21.50;46.00;22.40;101541.00;;;;5055595;28;20253;-43
2022/06/14 02:05:20;;;;;;;4.37;2.60;;;21.40;45.90;22.40;101536.00;;;;5054608;28;20186;-44
2022/06/14 02:08:01;;;;;;;3.73;2.37;;;21.40;45.80;22.30;101538.00;;;;5070151;28;20177;-43
2022/06/14 02:10:36;;;;;;;3.37;2.40;;;21.40;45.80;22.30;101524.00;;;;5054349;28;20169;-43
2022/06/14 02:13:15;;;;;;;4.23;2.60;;;21.40;46.00;22.30;101503.00;;;;5069968;28;20192;-43
2022/06/14 02:15:55;;;;;;;3.93;2.90;;;21.30;45.90;22.20;101523.00;;;;5053629;28;20238;-42
2022/06/14 02:18:30;;;;;;;3.60;2.70;;;21.30;45.80;22.20;101527.00;;;;5069916;28;20177;-42
2022/06/14 02:20:58;;;;;;;3.90;2.63;;;21.30;45.80;22.20;101537.00;;;;5070225;28;20162;-43
2022/06/14 02:23:24;;;;;;;3.20;2.40;;;21.30;45.80;22.20;101537.00;;;;5070771;28;20206;-43
2022/06/14 02:25:54;;;;;;;3.27;2.50;;;21.20;45.90;22.20;101536.00;;;;5069931;28;20205;-42
2022/06/14 02:28:26;;;;;;;3.23;2.50;;;21.20;45.90;22.20;101524.00;;;;5069526;28;20165;-43
2022/06/14 02:30:58;;;;;;;3.80;2.60;;;21.20;45.90;22.10;101529.00;;;;5071144;28;20171;-44
2022/06/14 02:33:44;;;;;;;3.43;2.70;;;21.20;45.90;22.10;101517.00;;;;5053464;28;20196;-43
2022/06/14 02:36:33;;;;;;;2.83;2.50;;;21.20;45.90;22.10;101511.00;;;;5054289;28;20184;-43
2022/06/14 02:39:12;;;;;;;5.50;2.53;;;21.10;45.80;22.10;101521.00;;;;5056706;28;20673;-43
2022/06/14 02:42:19;;;;;;;6.90;2.83;;;21.10;45.80;22.00;101517.00;;;;5057375;28;20249;-43
2022/06/14 02:45:22;;;;;;;3.77;2.77;;;21.10;45.80;22.00;101519.00;;;;5067824;28;20702;-43
2022/06/14 02:48:12;;;;;;;4.10;2.83;;;21.10;46.00;22.00;101522.00;;;;5069479;28;20164;-43
2022/06/14 02:50:48;;;;;;;6.33;2.50;;;21.10;46.00;21.90;101516.00;;;;5055592;28;20165;-43
2022/06/14 02:53:25;;;;;;;2.70;2.23;;;21.00;45.90;21.90;101516.00;;;;5069496;28;20189;-43
2022/06/14 02:56:01;;;;;;;3.53;2.50;;;21.00;45.90;21.90;101517.00;;;;5054121;28;20543;-43
2022/06/14 02:58:51;;;;;;;3.83;2.63;;;21.00;45.90;21.90;101514.00;;;;5069303;28;20152;-43
2022/06/14 03:01:42;;;;;;;3.33;2.37;;;20.90;46.50;21.80;101530.00;;;;5069862;28;20184;-43
2022/06/14 03:04:27;;;;;;;3.97;2.43;;;20.90;46.00;21.80;101524.00;;;;5068823;28;20209;-43
2022/06/14 03:07:00;;;;;;;2.73;2.30;;;20.90;46.00;21.80;101516.00;;;;5069593;28;20539;-43
2022/06/14 03:09:31;;;;;;;2.90;2.37;;;20.90;46.00;21.80;101506.00;;;;5053944;28;20169;-43
2022/06/14 03:12:28;;;;;;;2.73;2.40;;;20.90;46.00;21.80;101522.00;;;;5053847;28;20166;-42
2022/06/14 03:15:23;;;;;;;2.93;2.30;;;20.90;46.10;21.80;101520.00;;;;5069181;28;20624;-44
2022/06/14 03:18:19;;;;;;;4.30;2.43;;;20.80;46.00;21.70;101516.00;;;;5069218;28;20656;-43
2022/06/14 03:21:16;;;;;;;3.50;2.20;;;20.80;46.00;21.70;101510.00;;;;5068961;28;20167;-43
2022/06/14 03:24:12;;;;;;;3.87;2.60;;;20.80;46.00;21.70;101514.00;;;;5068695;28;20205;-42
2022/06/14 03:27:06;;;;;;;6.63;2.83;;;20.80;46.30;21.60;101506.00;;;;5055579;28;20266;-42
2022/06/14 03:29:47;;;;;;;3.57;2.50;;;20.70;46.60;21.60;101498.00;;;;5068416;28;20175;-43
2022/06/14 03:32:30;;;;;;;4.97;2.30;;;20.70;46.40;21.60;101509.00;;;;5052782;28;20619;-42
2022/06/14 03:35:11;;;;;;;6.20;2.50;;;20.70;46.40;21.60;101515.00;;;;5054146;28;20191;-43
2022/06/14 03:37:37;;;;;;;5.30;2.67;;;20.70;47.00;21.60;101515.00;;;;5053352;28;20549;-43
2022/06/14 03:40:08;;;;;;;5.37;4.80;;;20.70;46.40;21.50;101511.00;;;;5068783;28;20168;-43
2022/06/14 03:42:35;;;;;;;6.67;4.07;;;20.70;46.50;21.50;101504.00;;;;5059753;28;20199;-44
2022/06/14 03:45:02;;;;;;;4.93;4.00;;;20.60;46.40;21.50;101509.00;;;;5071415;28;20202;-43
2022/06/14 03:47:29;;;;;;;7.47;5.80;;;20.60;46.50;21.50;101511.00;;;;5053504;28;20182;-43
2022/06/14 03:50:10;;;;;;;4.37;3.83;;;20.60;46.60;21.50;101499.00;;;;5069605;28;20644;-42
2022/06/14 03:52:52;;;;;;;4.23;3.07;;;20.60;46.60;21.50;101500.00;;;;5053493;28;20182;-43
2022/06/14 03:55:43;;;;;;;3.57;2.70;;;20.50;46.60;21.50;101506.00;;;;5068326;28;20236;-42
2022/06/14 03:58:34;;;;;;;3.33;2.50;;;20.60;46.60;21.40;101509.00;;;;5066966;28;20707;-43
2022/06/14 04:01:40;;;;;;;3.00;2.60;;;20.50;46.60;21.40;101490.00;;;;5080480;28;20177;-43
2022/06/14 04:04:30;;;;;;;4.57;2.50;;;20.50;46.60;21.40;101509.00;;;;5085435;28;20205;-44
2022/06/14 04:07:03;;;;;;;3.90;2.80;;;20.50;46.60;21.30;101506.00;;;;5087937;28;20173;-44
2022/06/14 04:09:56;;;;;;;2.60;2.27;;;20.40;46.50;21.30;101515.00;;;;5069889;28;20525;-44
2022/06/14 04:12:49;;;;;;;3.07;2.47;;;20.40;46.50;21.30;101508.00;;;;5067512;28;20213;-43
2022/06/14 04:15:48;;;;;;;4.33;2.40;;;20.40;46.50;21.30;101507.00;;;;5068149;28;20208;-43
2022/06/14 04:18:38;;;;;;;3.67;2.40;;;20.40;46.70;21.20;101495.00;;;;5067678;28;20166;-43
2022/06/14 04:21:32;;;;;;;6.83;2.30;;;20.40;46.60;21.20;101506.00;;;;5067892;28;20499;-42
2022/06/14 04:24:28;;;;;;;4.43;2.70;;;20.30;46.60;21.20;101499.00;;;;5068534;28;20318;-42
2022/06/14 04:26:59;;;;;;;3.10;2.37;;;20.30;46.70;21.20;101511.00;;;;5066965;28;20227;-42
2022/06/14 04:29:39;;;;;;;4.90;2.20;;;20.30;46.70;20.90;101506.00;;;;5067195;28;20195;-43
2022/06/14 04:32:30;;;;;;;4.47;2.30;;;20.30;46.80;21.20;101503.00;;;;5068548;28;20161;-46
2022/06/14 04:35:06;;;;;;;3.63;2.40;;;20.30;46.80;21.10;101515.00;;;;5068601;28;20189;-42
2022/06/14 04:37:41;;;;;;;3.77;2.30;;;20.30;46.80;21.10;101501.00;;;;5050894;28;20458;-42
2022/06/14 04:40:30;;;;;;;2.73;2.30;;;20.30;46.90;21.10;101510.00;;;;5066946;28;20165;-42
2022/06/14 04:43:09;;;;;;;4.30;2.30;;;20.20;46.90;21.10;101505.00;;;;5067130;28;20201;-42
2022/06/14 04:46:05;;;;;;;4.97;2.37;;;20.20;46.90;21.10;101518.00;;;;5066912;28;20264;-42
2022/06/14 04:48:49;;;;;;;2.77;2.20;;;20.20;47.10;21.00;101499.00;;;;5069944;28;20161;-42
2022/06/14 04:51:37;;;;;;;4.37;2.40;;;20.20;47.10;21.00;101504.00;;;;5066867;28;20211;-43
2022/06/14 04:54:32;;;;;;;3.93;2.30;;;20.10;47.10;21.00;101505.00;;;;5067432;28;20192;-42
2022/06/14 04:57:11;;;;;;;2.67;2.17;;;20.10;47.10;21.00;101498.00;;;;5048354;28;20220;-43
2022/06/14 05:00:08;;;;;;;2.97;2.20;;;20.20;47.10;21.00;101509.00;;;;5067524;28;20666;-42
2022/06/14 05:02:56;;;;;;;4.50;2.50;;;20.20;47.40;20.90;101507.00;;;;5067209;28;20272;-42
2022/06/14 05:05:29;;;;;;;3.33;2.50;;;20.10;47.20;20.90;101510.00;;;;5067517;28;20188;-43
2022/06/14 05:08:27;;;;;;;2.53;2.00;;;20.10;47.40;20.90;101506.00;;;;5067033;28;20698;-42
2022/06/14 05:11:19;;;;;;;3.20;2.20;;;20.00;47.30;20.90;101509.00;;;;5067089;28;20166;-43
2022/06/14 05:14:11;;;;;;;3.57;2.30;;;20.10;47.50;20.90;101499.00;;;;5067289;28;20227;-42
2022/06/14 05:17:12;;;;;;;4.37;2.50;;;20.00;47.60;20.90;101518.00;;;;5067325;28;20711;-44
2022/06/14 05:20:10;;;;;;;3.27;2.20;;;20.00;47.80;20.80;101509.00;;;;5057486;28;20244;-42
2022/06/14 05:23:05;;;;;;;2.30;2.10;;;20.00;47.80;20.80;101525.00;;;;5066591;28;20840;-42
2022/06/14 05:26:06;;;;;;;3.93;2.47;;;20.00;48.00;20.80;101514.00;;;;5067003;28;20174;-43
2022/06/14 05:29:00;;;;;;;4.30;2.27;;;20.00;48.00;20.80;101522.00;;;;5066951;28;20516;-42
2022/06/14 05:31:55;;;;;;;4.07;2.20;;;20.00;48.00;20.80;101521.00;;;;5069347;28;20158;-44
2022/06/14 05:34:48;;;;;;;4.20;2.73;;;19.90;47.90;20.80;101522.00;;;;5071207;28;20663;-43
2022/06/14 05:37:38;;;;;;;5.07;2.70;;;19.90;48.10;20.70;101519.00;;;;5066675;28;20170;-43
2022/06/14 05:40:36;;;;;;;3.47;2.43;;;19.90;48.40;20.70;101520.00;;;;5072953;28;20237;-43
2022/06/14 05:43:31;;;;;;;4.20;2.83;;;19.90;48.30;20.70;101511.00;;;;5070844;28;20580;-42
2022/06/14 05:46:22;;;;;;;3.70;2.67;;;19.90;48.50;20.70;101517.00;;;;5070622;28;20273;-43
2022/06/14 05:48:53;;;;;;;3.67;2.70;;;19.80;48.90;20.70;101512.00;;;;5067003;28;20562;-42
2022/06/14 05:51:22;;;;;;;3.80;2.60;;;19.80;49.00;20.60;101515.00;;;;5070576;28;20181;-43
2022/06/14 05:54:10;;;;;;;3.70;2.30;;;19.80;49.00;20.70;101510.00;;;;5073801;28;20697;-43
2022/06/14 05:56:52;;;;;;;4.60;2.70;;;19.80;48.90;20.60;101496.00;;;;5071074;28;20576;-42
2022/06/14 05:59:45;;;;;;;4.47;2.60;;;19.80;49.10;20.60;101519.00;;;;5071072;28;20247;-42
2022/06/14 06:02:39;;;;;;;4.80;2.63;;;19.80;49.10;20.60;101499.00;;;;5070343;28;20166;-42
2022/06/14 06:05:49;;;;;;;4.17;2.80;;;19.80;49.10;20.60;101523.00;;;;5061076;28;20233;-42
2022/06/14 06:08:54;;;;;;;5.70;2.60;;;19.80;49.40;20.60;101524.00;;;;5058872;28;20196;-43
2022/06/14 06:11:51;;;;;;;4.07;2.80;;;19.70;49.40;20.60;101525.00;;;;5070908;28;20223;-42
2022/06/14 06:14:36;;;;;;;4.70;2.60;;;19.70;49.40;20.60;101519.00;;;;5068181;28;20724;-41
2022/06/14 06:17:16;;;;;;;3.67;2.77;;;19.70;50.00;20.50;101523.00;;;;5071142;28;20174;-42
2022/06/14 06:20:03;;;;;;;4.83;2.87;;;19.70;50.00;20.50;101518.00;;;;5069835;28;20613;-42
2022/06/14 06:22:45;;;;;;;3.57;2.40;;;19.70;50.00;20.50;101518.00;;;;5069586;28;20205;-41
2022/06/14 06:25:15;;;;;;;3.93;2.70;;;19.70;50.00;20.50;101527.00;;;;5069468;28;20181;-42
2022/06/14 06:27:46;;;;;;;3.77;2.50;;;19.70;50.00;20.30;101531.00;;;;5069458;28;20169;-44
2022/06/14 06:30:22;;;;;;;3.43;2.47;;;19.70;50.00;20.50;101536.00;;;;5069617;28;20169;-43
2022/06/14 06:32:47;;;;;;;6.50;3.20;;;19.70;50.00;20.40;101534.00;;;;5069611;28;20181;-43
2022/06/14 06:35:13;;;;;;;4.90;2.70;;;19.70;50.20;20.50;101528.00;;;;5069828;28;20208;-43
2022/06/14 06:37:44;;;;;;;4.07;2.80;;;19.70;50.00;20.50;101525.00;;;;5069141;28;20654;-43
2022/06/14 06:40:23;;;;;;;6.10;2.87;;;19.70;50.00;20.50;101537.00;;;;5069612;28;20201;-43
2022/06/14 06:42:58;;;;;;;6.20;3.30;;;19.70;50.30;20.50;101540.00;;;;5070893;28;20197;-42
2022/06/14 06:45:32;;;;;;;5.50;3.10;;;19.60;50.80;20.50;101546.00;;;;5069425;28;20212;-42
2022/06/14 06:48:09;;;;;;;5.50;3.30;;;19.60;50.70;20.50;101541.00;;;;5070191;28;20164;-43
2022/06/14 06:50:42;;;;;;;5.67;3.20;;;19.50;50.80;20.40;101545.00;;;;5068303;28;20660;-43
2022/06/14 06:53:14;;;;;;;5.00;2.70;;;19.50;50.90;20.30;101544.00;;;;5069247;28;20189;-43
2022/06/14 06:55:54;;;;;;;4.00;2.80;;;19.50;50.60;20.20;101538.00;;;;5069215;28;20181;-43
2022/06/14 06:58:33;;;;;;;4.30;2.70;;;19.60;50.70;20.30;101525.00;;;;5069851;28;20169;-43
2022/06/14 07:01:03;;;;;;;4.00;2.70;;;19.60;50.50;20.30;101549.00;;;;5068394;28;20165;-43
2022/06/14 07:03:38;;;;;;;4.40;2.70;;;19.60;50.50;20.30;101539.00;;;;5068992;28;20189;-42
2022/06/14 07:06:04;;;;;;;5.23;3.00;;;19.60;50.60;20.30;101540.00;;;;5070350;28;20212;-43
2022/06/14 07:08:46;;;;;;;4.87;3.00;;;19.60;50.60;20.30;101543.00;;;;5052238;28;20178;-41
2022/06/14 07:11:18;;;;;;;5.70;3.23;;;19.50;50.70;20.30;101528.00;;;;5068974;28;20526;-42
2022/06/14 07:13:54;;;;;;;3.93;2.83;;;19.50;50.60;20.30;101537.00;;;;5069726;28;20190;-42
2022/06/14 07:16:37;;;;;;;5.03;2.73;;;19.50;50.70;20.30;101543.00;;;;5071750;28;20165;-42
2022/06/14 07:19:31;;;;;;;4.53;2.90;;;19.50;50.60;20.30;101540.00;;;;5070816;28;20150;-43
2022/06/14 07:22:11;;;;;;;6.37;2.80;;;19.50;50.60;20.30;101544.00;;;;5078203;28;20228;-43
2022/06/14 07:24:54;;;;;;;5.03;2.70;;;19.50;50.70;20.30;101543.00;;;;5081594;28;20169;-43
2022/06/14 07:27:23;;;;;;;5.10;2.80;;;19.60;50.90;20.30;101552.00;;;;5076941;28;20538;-42
2022/06/14 07:29:57;;;;;;;5.03;3.03;;;19.50;50.70;20.30;101552.00;;;;5068986;28;20200;-42
2022/06/14 07:32:32;;;;;;;4.73;3.10;;;19.50;51.10;20.30;101542.00;;;;5067525;28;20186;-46
2022/06/14 07:34:58;;;;;;;8.03;3.00;;;19.40;51.00;20.30;101537.00;;;;5067391;28;20173;-41
2022/06/14 07:38:04;;;;;;;5.80;3.50;;;19.50;51.10;20.30;101541.00;;;;5068212;28;20193;-44
2022/06/14 07:41:14;;;;;;;5.00;2.83;;;19.50;51.20;20.20;101542.00;;;;4992454;28;20189;-42
2022/06/14 07:43:54;;;;;;;5.27;3.07;;;19.50;51.10;20.20;101544.00;;;;5091301;28;20209;-42
2022/06/14 07:46:28;;;;;;;6.17;3.27;;;19.50;51.70;20.20;101528.00;;;;5088230;28;20246;-43
2022/06/14 07:49:06;;;;;;;5.40;3.20;;;19.50;51.40;20.20;101545.00;;;;5104716;28;20663;-43
2022/06/14 07:51:41;;;;;;;6.17;3.20;;;19.50;51.70;20.20;101540.00;;;;5115600;27;20171;-43
2022/06/14 07:54:31;;;;;;;6.53;3.27;;;19.50;51.60;20.20;101539.00;;;;5125280;27;20207;-43
2022/06/14 07:57:17;;;;;;;4.60;3.20;;;19.40;51.50;20.20;101542.00;;;;5124402;27;20157;-42
2022/06/14 08:03:20;;;;;;;5.13;2.60;;;19.40;51.60;20.10;101546.00;;;;5099018;28;20199;-43
2022/06/14 08:05:47;;;;;;;4.47;2.90;;;19.40;51.90;20.10;101540.00;;;;5102669;28;20229;-43
2022/06/14 08:08:17;;;;;;;4.33;3.03;;;19.40;51.80;20.20;101542.00;;;;5112288;27;20653;-43
2022/06/14 08:10:47;;;;;;;5.83;3.10;;;19.40;51.80;20.20;101523.00;;;;5125343;27;20153;-44
2022/06/14 08:13:15;;;;;;;4.67;2.80;;;19.40;51.00;20.10;101539.00;;;;5125674;27;20242;-42
2022/06/14 08:15:51;;;;;;;5.90;3.30;;;19.50;51.20;20.20;101523.00;;;;5125558;27;20176;-42
2022/06/14 08:18:36;;;;;;;3.60;2.57;;;19.40;51.10;19.90;101526.00;;;;5125594;27;20156;-42
2022/06/14 08:21:43;;;;;;;6.20;2.90;;;19.40;51.20;20.20;101542.00;;;;5124922;27;20160;-42
2022/06/14 08:24:22;;;;;;;8.57;3.00;;;19.30;51.80;20.10;101534.00;;;;5125987;27;20861;-43
2022/06/14 08:27:07;;;;;;;5.23;3.03;;;19.30;51.50;20.10;101524.00;;;;5123929;27;20213;-42
2022/06/14 08:29:44;;;;;;;6.63;3.10;;;19.30;51.10;20.10;101535.00;;;;5125367;27;20580;-43
2022/06/14 08:32:31;;;;;;;6.97;3.37;;;19.40;51.10;20.10;101496.00;;;;5123934;27;20156;-42
2022/06/14 08:35:27;;;;;;;7.13;3.40;;;19.30;50.70;20.00;101511.00;;;;5121962;27;20169;-41
2022/06/14 08:38:43;;;;;;;6.37;3.00;;;19.30;50.50;20.00;101511.00;;;;5101482;28;20149;-44
2022/06/14 08:41:49;;;;;;;5.13;2.63;;;19.30;50.50;20.00;101517.00;;;;5021286;28;20248;-42
2022/06/14 08:44:20;;;;;;;4.07;2.63;;;19.30;50.10;20.00;101511.00;;;;5109404;28;20203;-42
2022/06/14 08:47:03;;;;;;;5.20;2.40;;;19.30;51.40;20.10;101517.00;;;;5108997;28;20187;-42
2022/06/14 08:50:08;;;;;;;6.37;2.90;;;19.40;51.80;20.10;101512.00;;;;5124178;28;20186;-43
2022/06/14 08:52:48;;;;;;;6.03;2.77;;;19.50;52.80;20.20;101507.00;;;;5111547;27;20219;-44
2022/06/14 08:55:35;;;;;;;3.93;2.70;;;19.50;53.20;20.20;101508.00;;;;5109496;28;20251;-44
2022/06/14 08:58:34;;;;;;;6.13;2.83;;;19.60;52.30;20.30;101506.00;;;;5122486;28;20232;-44
2022/06/14 09:01:37;;;;;;;4.60;2.43;;;19.60;52.40;20.30;101496.00;;;;5107713;28;20247;-45
2022/06/14 09:04:54;;;;;;;6.63;2.60;;;19.60;52.00;20.40;101496.00;;;;5124892;28;20221;-44
2022/06/14 09:07:57;;;;;;;4.40;2.30;;;19.60;51.80;20.40;101496.00;;;;5108738;28;20167;-44
2022/06/14 09:11:14;;;;;;;4.27;2.50;;;19.60;51.70;20.40;101487.00;;;;5122121;28;20200;-44
2022/06/14 09:14:32;;;;;;;3.20;2.50;;;19.60;51.20;20.40;101492.00;;;;5119925;28;20212;-44
2022/06/14 09:17:13;;;;;;;5.43;2.50;;;19.60;50.80;20.40;101475.00;;;;5113191;28;20157;-45
2022/06/14 09:20:02;;;;;;;4.20;2.10;;;19.70;50.90;20.40;101425.00;;;;5113484;28;20206;-44
2022/06/14 09:22:33;;;;;;;5.07;2.40;;;19.70;51.10;20.40;101480.00;;;;5126300;27;20208;-43
2022/06/14 09:25:27;;;;;;;4.13;2.60;;;19.70;50.90;20.50;101477.00;;;;5112844;28;20541;-44
2022/06/14 09:28:02;;;;;;;4.03;2.43;;;19.70;50.80;20.50;101476.00;;;;5125898;27;20175;-44
2022/06/14 09:31:13;;;;;;;4.93;2.50;;;19.70;50.90;20.50;101467.00;;;;5112799;28;20172;-44
2022/06/14 09:34:11;;;;;;;3.37;2.33;;;19.60;50.80;20.60;101473.00;;;;5125007;27;20198;-45
2022/06/14 09:37:23;;;;;;;3.43;2.23;;;19.60;51.40;20.60;101476.00;;;;5112741;27;20622;-44
2022/06/14 09:40:30;;;;;;;3.90;2.27;;;19.70;52.10;20.60;101477.00;;;;5035835;28;20634;-45
2022/06/14 09:43:40;;;;;;;5.00;2.67;;;19.60;50.80;20.50;101476.00;;;;5126004;27;20287;-44
2022/06/14 09:46:41;;;;;;;4.13;2.70;;;19.70;50.00;20.60;101469.00;;;;5116650;27;20248;-44
2022/06/14 09:49:49;;;;;;;4.23;2.60;;;19.70;51.00;20.60;101482.00;;;;5126003;27;20165;-44
2022/06/14 09:52:43;;;;;;;4.17;2.50;;;19.70;51.20;20.60;101458.00;;;;5128286;27;20191;-45
2022/06/14 09:55:09;;;;;;;3.17;2.60;;;19.80;51.60;20.60;101478.00;;;;5127086;27;20167;-45
2022/06/14 09:58:03;;;;;;;3.70;2.37;;;19.70;50.90;20.60;101487.00;;;;5114465;28;20172;-44
2022/06/14 10:00:50;;;;;;;3.80;2.40;;;19.80;51.20;20.60;101467.00;;;;5124428;27;20213;-44
2022/06/14 10:03:27;;;;;;;3.83;2.43;;;19.70;51.30;20.70;101481.00;;;;5126266;27;20177;-45
2022/06/14 10:06:23;;;;;;;3.90;2.43;;;19.80;51.80;20.70;101476.00;;;;5128236;27;20184;-44
2022/06/14 10:09:38;;;;;;;3.90;2.50;;;19.80;52.30;20.70;101470.00;;;;5125789;27;20260;-45
2022/06/14 10:12:06;;;;;;;3.30;2.30;;;19.90;52.50;20.70;101465.00;;;;5111967;28;20161;-44
2022/06/14 10:14:53;;;;;;;4.40;2.47;;;19.90;52.30;20.80;101464.00;;;;5112230;28;20164;-44
2022/06/14 10:18:02;;;;;;;4.97;2.60;;;19.80;51.80;20.80;101461.00;;;;5127742;27;20247;-44
2022/06/14 10:20:54;;;;;;;4.70;2.50;;;19.90;53.40;20.80;101474.00;;;;5069171;28;20161;-46
2022/06/14 10:23:29;;;;;;;4.83;2.70;;;19.90;52.50;20.80;101467.00;;;;5082182;28;20208;-46
2022/06/14 10:29:06;;;;;;;4.07;2.67;;;20.00;52.80;20.80;101462.00;;;;5086982;28;20176;-45
2022/06/14 10:32:06;;;;;;;4.13;2.70;;;19.90;51.80;20.90;101451.00;;;;5092241;28;20520;-43
2022/06/14 10:34:57;;;;;;;5.30;2.80;;;19.90;52.00;20.90;101440.00;;;;5104243;28;20172;-44
2022/06/14 10:38:15;;;;;;;3.03;2.27;;;19.90;53.20;20.90;101446.00;;;;5098456;27;20164;-44
2022/06/14 10:40:58;;;;;;;4.20;2.67;;;20.00;53.00;20.90;101447.00;;;;4891024;27;20195;-46
2022/06/14 10:43:38;;;;;;;4.50;2.90;;;20.00;52.70;20.90;101444.00;;;;5088140;28;20224;-45
2022/06/14 10:46:14;;;;;;;5.00;2.77;;;20.10;53.00;21.00;101436.00;;;;5091520;28;20295;-45
2022/06/14 10:48:57;;;;;;;6.13;3.07;;;20.10;51.00;21.00;101366.00;;;;5096716;28;20160;-45
2022/06/14 10:51:42;;;;;;;4.50;2.90;;;20.00;51.70;21.00;101433.00;;;;5105718;28;20172;-44
2022/06/14 10:54:28;;;;;;;3.50;2.57;;;20.00;51.10;21.00;101429.00;;;;5118201;27;20578;-44
2022/06/14 10:57:24;;;;;;;4.97;2.67;;;20.00;52.00;21.00;101434.00;;;;5114260;28;20476;-45
2022/06/14 11:00:28;;;;;;;3.37;2.50;;;20.10;53.00;21.10;101355.00;;;;5111525;28;20178;-44
2022/06/14 11:03:16;;;;;;;5.53;2.80;;;20.20;53.00;21.10;101416.00;;;;5123110;27;20192;-48
2022/06/14 11:06:08;;;;;;;5.30;2.97;;;20.10;51.00;21.10;101398.00;;;;5111470;28;20194;-44
2022/06/14 11:09:14;;;;;;;5.03;3.00;;;20.10;52.30;21.10;101395.00;;;;5124000;27;20210;-44
2022/06/14 11:12:05;;;;;;;6.80;3.03;;;20.20;51.10;21.10;101409.00;;;;5124493;27;20179;-43
2022/06/14 11:15:17;;;;;;;4.43;2.90;;;20.40;49.60;21.20;101405.00;;;;5126581;27;20258;-45
2022/06/14 11:18:05;;;;;;;4.53;2.67;;;20.50;49.10;21.20;101406.00;;;;5126611;27;20232;-43
2022/06/14 11:20:40;;;;;;;4.03;2.60;;;20.40;49.20;21.20;101404.00;;;;5110883;28;20523;-44
2022/06/14 11:23:19;;;;;;;4.93;2.60;;;20.50;50.30;21.30;101395.00;;;;5127149;27;20199;-45
2022/06/14 11:26:14;;;;;;;4.10;2.30;;;20.40;51.10;21.30;101402.00;;;;5126450;27;20207;-45
2022/06/14 11:28:50;;;;;;;5.27;3.00;;;20.50;51.90;21.30;101389.00;;;;5106245;28;20781;-44
2022/06/14 11:31:43;;;;;;;3.70;2.40;;;20.50;49.50;21.40;101394.00;;;;5126658;27;20225;-43
2022/06/14 11:34:31;;;;;;;4.83;2.53;;;20.50;50.60;21.40;101372.00;;;;5123670;27;20232;-44
2022/06/14 11:37:14;;;;;;;3.17;2.50;;;20.50;51.10;21.40;101378.00;;;;5106447;27;20169;-44
2022/06/14 11:39:53;;;;;;;5.93;2.83;;;20.60;51.70;21.50;101381.00;;;;5089833;28;20205;-44
2022/06/14 11:42:26;;;;;;;5.67;2.80;;;20.60;51.70;21.50;101375.00;;;;5063118;27;20560;-44
2022/06/14 11:45:19;;;;;;;14.23;3.13;;;20.70;50.50;21.50;101369.00;;;;5088651;28;20157;-44
2022/06/14 11:48:15;;;;;;;4.63;2.73;;;20.70;51.00;21.60;101363.00;;;;5088700;28;20165;-43
2022/06/14 11:50:54;;;;;;;5.13;2.53;;;20.80;51.60;21.60;101361.00;;;;5088481;28;20257;-44
2022/06/14 11:53:51;;;;;;;3.97;2.50;;;20.80;50.90;21.60;101358.00;;;;5088553;28;20200;-52
2022/06/14 11:56:34;;;;;;;4.47;2.50;;;20.70;51.40;21.70;101350.00;;;;5089615;28;20173;-44
2022/06/14 11:59:42;;;;;;;3.83;2.53;;;20.80;51.40;21.70;101345.00;;;;5056674;28;20260;-45
2022/06/14 12:02:32;;;;;;;3.60;2.50;;;20.90;51.50;21.80;101359.00;;;;5075564;28;20208;-46
2022/06/14 12:05:19;;;;;;;3.83;2.40;;;20.90;51.20;21.80;101349.00;;;;5113391;28;20197;-45
2022/06/14 12:08:05;;;;;;;5.63;2.70;;;21.10;51.10;21.80;101355.00;;;;5109072;28;20173;-44
2022/06/14 12:10:46;;;;;;;3.80;2.70;;;21.00;51.00;21.80;101347.00;;;;5060188;28;20170;-43